Falcon — WBE7134 — position and weather

sailwx.info

Track history (hours):
 
Tides and Currents Weather Stations Pressure Air Temp Water Temp Dewpoint Dewpoint Depression Visibility Wind Speed Wind Dir Waves Ship Positions

Falcon

Owner: Allied Transportation Company, NORFOLK, VA. More information available from US FCC via Universal Licensing System and Coast Guard Vessel Documentation Center.

Last reported at 2018-Feb-22 17:55 UTC. Time now 2018-Feb-22 18:20 UTC.
Position N 40°56' W 073°54'.

Length 37 m; draft 6 m.

Type: Tug. MMSI: 366976720.

Date/timePositionNaut miles runAvg speedWind from/ knotsBaromVisibWave heightAir tempDewpointWater temp
2018-Feb-22 17:55N 40°56' W 073°54'0 0.0
2018-Feb-22 17:25N 40°56' W 073°54'0 0.0
2018-Feb-22 16:49N 40°56' W 073°54'0 0.0
2018-Feb-22 16:19N 40°56' W 073°54'0 0.4
2018-Feb-22 15:55N 40°56' W 073°54'1 1.0
2018-Feb-22 15:23N 40°56' W 073°55'0 0.1
2018-Feb-22 14:59N 40°56' W 073°55'0 0.0
2018-Feb-22 12:50N 40°56' W 073°55'0 0.0
2018-Feb-22 12:29N 40°56' W 073°55'0 0.0
2018-Feb-22 11:56N 40°56' W 073°55'0 0.0
2018-Feb-22 11:29N 40°56' W 073°55'0 0.0
2018-Feb-22 10:59N 40°56' W 073°55'0 0.0
2018-Feb-22 10:29N 40°56' W 073°55'0 0.0
2018-Feb-22 09:59N 40°56' W 073°55'0 0.0
2018-Feb-22 09:29N 40°56' W 073°55'0 0.0
2018-Feb-22 08:56N 40°56' W 073°55'0 0.3
2018-Feb-22 08:23N 40°56' W 073°55'0 0.2
2018-Feb-22 08:00N 40°56' W 073°55'0 0.2
2018-Feb-22 07:30N 40°56' W 073°55'2 3.9
2018-Feb-22 07:00N 40°54' W 073°55'4 7.5
2018-Feb-22 06:28N 40°51' W 073°57'4 7.8
2018-Feb-22 06:00N 40°47' W 073°59'4 7.5
2018-Feb-22 05:30N 40°44' W 074°01'4 7.4
2018-Feb-22 05:00N 40°40' W 074°02'3 7.0
2018-Feb-22 04:30N 40°37' W 074°03'2 4.9
2018-Feb-22 04:00N 40°35' W 074°02'0 0.3
2018-Feb-22 03:30N 40°34' W 074°02'0 0.1
2018-Feb-22 03:00N 40°34' W 074°02'1 1.9
2018-Feb-22 02:30N 40°33' W 074°02'3 5.7
2018-Feb-22 02:00N 40°31' W 073°59'3 5.7
2018-Feb-22 01:30N 40°30' W 073°56'2 4.5
2018-Feb-22 01:00N 40°28' W 073°54'3 5.4
2018-Feb-22 00:30N 40°25' W 073°54'36 6.2
2018-Feb-21 18:47N 39°50' W 073°60'3 6.1
2018-Feb-21 18:17N 39°47' W 074°00'2 6.3
2018-Feb-21 17:58N 39°45' W 074°00'3 6.2
2018-Feb-21 17:27N 39°42' W 074°01'3 6.2
2018-Feb-21 16:56N 39°39' W 074°02'3 6.2
2018-Feb-21 16:28N 39°36' W 074°04'  
2018-Feb-16 16:58N 27°07' W 079°53'4 9.4
2018-Feb-16 16:30N 27°02' W 079°53'5 9.4
2018-Feb-16 16:00N 26°58' W 079°54'4 8.6
2018-Feb-16 15:30N 26°54' W 079°56'4 7.8
2018-Feb-16 15:00N 26°50' W 079°58'5 5.4
2018-Feb-16 14:04N 26°46' W 080°01'1 2.7
2018-Feb-16 13:52N 26°46' W 080°02'1 2.0
2018-Feb-16 13:29N 26°46' W 080°03'0 0.0
2018-Feb-15 10:30N 26°46' W 080°03'2 1.4
2018-Feb-15 08:45N 26°46' W 080°00'1 3.0
2018-Feb-15 08:25N 26°47' W 080°00'1 3.3
2018-Feb-15 08:00N 26°48' W 080°00'2 3.4
2018-Feb-15 07:30N 26°50' W 080°00'2 3.7
2018-Feb-15 07:00N 26°52' W 080°01'2 4.0
2018-Feb-15 06:30N 26°54' W 080°01'2 4.0
2018-Feb-15 06:00N 26°56' W 080°02'2 4.0
2018-Feb-15 05:30N 26°58' W 080°02'2 3.9
2018-Feb-15 05:00N 26°60' W 080°02'2 3.9
2018-Feb-15 04:30N 27°01' W 080°03'  
Track history (hours):
 
Tides and Currents Weather Stations Pressure Air Temp Water Temp Dewpoint Dewpoint Depression Visibility Wind Speed Wind Dir Waves Ship Positions

Falcon

Owner: Allied Transportation Company, NORFOLK, VA. More information available from US FCC via Universal Licensing System and Coast Guard Vessel Documentation Center.

Last reported at 2018-Feb-22 17:55 UTC. Time now 2018-Feb-22 18:20 UTC.
Position N 40°56' W 073°54'.

Length 37 m; draft 6 m.

Type: Tug. MMSI: 366976720.

Date/timePositionNaut miles runAvg speedWind from/ knotsBaromVisibWave heightAir tempDewpointWater temp
2018-Feb-22 17:55N 40°56' W 073°54'0 0.0
2018-Feb-22 17:25N 40°56' W 073°54'0 0.0
2018-Feb-22 16:49N 40°56' W 073°54'0 0.0
2018-Feb-22 16:19N 40°56' W 073°54'0 0.4
2018-Feb-22 15:55N 40°56' W 073°54'1 1.0
2018-Feb-22 15:23N 40°56' W 073°55'0 0.1
2018-Feb-22 14:59N 40°56' W 073°55'0 0.0
2018-Feb-22 12:50N 40°56' W 073°55'0 0.0
2018-Feb-22 12:29N 40°56' W 073°55'0 0.0
2018-Feb-22 11:56N 40°56' W 073°55'0 0.0
2018-Feb-22 11:29N 40°56' W 073°55'0 0.0
2018-Feb-22 10:59N 40°56' W 073°55'0 0.0
2018-Feb-22 10:29N 40°56' W 073°55'0 0.0
2018-Feb-22 09:59N 40°56' W 073°55'0 0.0
2018-Feb-22 09:29N 40°56' W 073°55'0 0.0
2018-Feb-22 08:56N 40°56' W 073°55'0 0.3
2018-Feb-22 08:23N 40°56' W 073°55'0 0.2
2018-Feb-22 08:00N 40°56' W 073°55'0 0.2
2018-Feb-22 07:30N 40°56' W 073°55'2 3.9
2018-Feb-22 07:00N 40°54' W 073°55'4 7.5
2018-Feb-22 06:28N 40°51' W 073°57'4 7.8
2018-Feb-22 06:00N 40°47' W 073°59'4 7.5
2018-Feb-22 05:30N 40°44' W 074°01'4 7.4
2018-Feb-22 05:00N 40°40' W 074°02'3 7.0
2018-Feb-22 04:30N 40°37' W 074°03'2 4.9
2018-Feb-22 04:00N 40°35' W 074°02'0 0.3
2018-Feb-22 03:30N 40°34' W 074°02'0 0.1
2018-Feb-22 03:00N 40°34' W 074°02'1 1.9
2018-Feb-22 02:30N 40°33' W 074°02'3 5.7
2018-Feb-22 02:00N 40°31' W 073°59'3 5.7
2018-Feb-22 01:30N 40°30' W 073°56'2 4.5
2018-Feb-22 01:00N 40°28' W 073°54'3 5.4
2018-Feb-22 00:30N 40°25' W 073°54'36 6.2
2018-Feb-21 18:47N 39°50' W 073°60'3 6.1
2018-Feb-21 18:17N 39°47' W 074°00'2 6.3
2018-Feb-21 17:58N 39°45' W 074°00'3 6.2
2018-Feb-21 17:27N 39°42' W 074°01'3 6.2
2018-Feb-21 16:56N 39°39' W 074°02'3 6.2
2018-Feb-21 16:28N 39°36' W 074°04'  
2018-Feb-16 16:58N 27°07' W 079°53'4 9.4
2018-Feb-16 16:30N 27°02' W 079°53'5 9.4
2018-Feb-16 16:00N 26°58' W 079°54'4 8.6
2018-Feb-16 15:30N 26°54' W 079°56'4 7.8
2018-Feb-16 15:00N 26°50' W 079°58'5 5.4
2018-Feb-16 14:04N 26°46' W 080°01'1 2.7
2018-Feb-16 13:52N 26°46' W 080°02'1 2.0
2018-Feb-16 13:29N 26°46' W 080°03'0 0.0
2018-Feb-15 10:30N 26°46' W 080°03'2 1.4
2018-Feb-15 08:45N 26°46' W 080°00'1 3.0
2018-Feb-15 08:25N 26°47' W 080°00'1 3.3
2018-Feb-15 08:00N 26°48' W 080°00'2 3.4
2018-Feb-15 07:30N 26°50' W 080°00'2 3.7
2018-Feb-15 07:00N 26°52' W 080°01'2 4.0
2018-Feb-15 06:30N 26°54' W 080°01'2 4.0
2018-Feb-15 06:00N 26°56' W 080°02'2 4.0
2018-Feb-15 05:30N 26°58' W 080°02'2 3.9
2018-Feb-15 05:00N 26°60' W 080°02'2 3.9
2018-Feb-15 04:30N 27°01' W 080°03'  

Dump ship's entire track history